createdAt,value
2023-01-09T00:00:29.149Z,95948.94
2023-01-09T00:02:56.782Z,95953.19
2023-01-09T00:05:24.552Z,95958.94
2023-01-09T00:07:53.493Z,95961.91
2023-01-09T00:10:21.070Z,95968.03
2023-01-09T00:12:48.589Z,95972.50
2023-01-09T00:15:16.338Z,95955.09
2023-01-09T00:17:43.913Z,95952.34
2023-01-09T00:20:11.887Z,95947.81
2023-01-09T00:22:39.446Z,95941.41
2023-01-09T00:25:09.333Z,95935.25
2023-01-09T00:27:37.226Z,95940.22
2023-01-09T00:30:05.721Z,95934.41
2023-01-09T00:32:33.264Z,95938.13
2023-01-09T00:35:00.777Z,95941.53
2023-01-09T00:37:28.312Z,95942.22
2023-01-09T00:39:55.826Z,95956.00
2023-01-09T00:42:30.458Z,95954.44
2023-01-09T00:45:03.981Z,95948.75
2023-01-09T00:47:36.563Z,95947.34
2023-01-09T00:50:10.437Z,95967.72
2023-01-09T00:52:40.470Z,95967.16
2023-01-09T00:55:09.979Z,95987.44
2023-01-09T00:57:38.939Z,96002.31
2023-01-09T01:00:09.661Z,96004.25
2023-01-09T01:02:37.290Z,96000.09
2023-01-09T01:05:06.073Z,96027.69
2023-01-09T01:07:33.700Z,96049.97
2023-01-09T01:10:01.256Z,96070.47
2023-01-09T01:12:28.803Z,96052.59
2023-01-09T01:14:57.741Z,96056.41
2023-01-09T01:17:25.315Z,96055.28
2023-01-09T01:19:52.837Z,96056.78
2023-01-09T01:22:20.418Z,96089.47
2023-01-09T01:24:48.051Z,96101.25
2023-01-09T01:27:15.570Z,96117.22
2023-01-09T01:29:43.315Z,96141.16
2023-01-09T01:32:12.173Z,96136.22
2023-01-09T01:34:39.980Z,96148.75
2023-01-09T01:37:07.560Z,96144.19
2023-01-09T01:39:36.315Z,96129.75
2023-01-09T01:42:04.163Z,96162.03
2023-01-09T01:45:12.417Z,96172.66
2023-01-09T01:47:52.414Z,96176.88
2023-01-09T01:50:28.768Z,96188.19
2023-01-09T01:53:09.308Z,96191.22
2023-01-09T01:55:41.738Z,96212.53
2023-01-09T01:58:13.955Z,96217.50
2023-01-09T02:00:46.387Z,96217.50
2023-01-09T02:03:19.418Z,96222.84
2023-01-09T02:05:47.131Z,96225.53
2023-01-09T02:08:14.888Z,96231.22
2023-01-09T02:10:43.808Z,96233.13
2023-01-09T02:13:13.489Z,96230.47
2023-01-09T02:15:57.241Z,96254.81
2023-01-09T02:18:40.260Z,96262.06
2023-01-09T02:21:20.440Z,96276.50
2023-01-09T02:24:10.643Z,96282.94
2023-01-09T02:27:05.815Z,96279.94
2023-01-09T02:30:08.800Z,96289.03
2023-01-09T02:32:45.140Z,96290.94
2023-01-09T02:35:35.004Z,96308.81
2023-01-09T02:38:17.201Z,96331.25
2023-01-09T02:40:52.391Z,96321.34
2023-01-09T02:43:20.708Z,96339.97
2023-01-09T02:45:49.621Z,96343.38
2023-01-09T02:48:17.213Z,96342.22
2023-01-09T02:50:53.277Z,96348.69
2023-01-09T02:53:45.268Z,96346.00
2023-01-09T02:56:28.360Z,96341.09
2023-01-09T02:59:19.532Z,96358.19
2023-01-09T03:02:01.509Z,96355.16
2023-01-09T03:04:42.977Z,96366.16
2023-01-09T03:07:21.509Z,96370.75
2023-01-09T03:09:55.897Z,96381.06
2023-01-09T03:12:29.535Z,96384.13
2023-01-09T03:15:01.870Z,96392.13
2023-01-09T03:17:37.004Z,96402.44
2023-01-09T03:20:09.386Z,96391.41
2023-01-09T03:22:39.635Z,96396.34
2023-01-09T03:25:07.863Z,96401.69
2023-01-09T03:27:35.573Z,96408.16
2023-01-09T03:30:04.058Z,96415.78
2023-01-09T03:32:32.996Z,96416.13
2023-01-09T03:35:00.565Z,96417.66
2023-01-09T03:37:28.091Z,96418.03
2023-01-09T03:39:55.698Z,96422.59
2023-01-09T03:42:23.268Z,96440.06
2023-01-09T03:44:50.879Z,96443.88
2023-01-09T03:47:18.391Z,96454.91
2023-01-09T03:49:47.271Z,96456.84
2023-01-09T03:52:14.784Z,96469.03
2023-01-09T03:54:42.316Z,96478.19
2023-01-09T03:57:09.862Z,96491.88
2023-01-09T03:59:37.420Z,96501.28
2023-01-09T04:02:05.162Z,96492.16
2023-01-09T04:04:32.751Z,96502.38
2023-01-09T04:07:01.615Z,96491.31
2023-01-09T04:09:29.265Z,96501.59
2023-01-09T04:11:56.756Z,96502.72
2023-01-09T04:14:24.482Z,96494.34
2023-01-09T04:16:52.024Z,96499.28
2023-01-09T04:19:19.718Z,96510.72
2023-01-09T04:21:47.204Z,96514.06
2023-01-09T04:24:17.420Z,96511.41
2023-01-09T04:26:44.921Z,96513.66
2023-01-09T04:29:12.433Z,96522.06
2023-01-09T04:31:40.039Z,96534.97
2023-01-09T04:34:07.615Z,96540.72
2023-01-09T04:36:35.160Z,96547.19
2023-01-09T04:39:03.543Z,96562.78
2023-01-09T04:41:32.474Z,96556.00
2023-01-09T04:44:00.007Z,96563.63
2023-01-09T04:46:27.521Z,96560.97
2023-01-09T04:48:55.044Z,96569.69
2023-01-09T04:51:22.549Z,96572.41
2023-01-09T04:53:50.062Z,96581.53
2023-01-09T04:56:17.624Z,96584.66
2023-01-09T04:58:46.619Z,96589.22
2023-01-09T05:01:16.895Z,96589.25
2023-01-09T05:03:44.549Z,96582.06
2023-01-09T05:06:12.189Z,96575.53
2023-01-09T05:08:39.856Z,96596.06
2023-01-09T05:11:07.405Z,96594.59
2023-01-09T05:13:35.014Z,96602.16
2023-01-09T05:16:04.273Z,96596.16
2023-01-09T05:18:32.410Z,96603.44
2023-01-09T05:21:00.280Z,96595.06
2023-01-09T05:23:27.803Z,96597.00
2023-01-09T05:25:55.352Z,96594.72
2023-01-09T05:28:22.972Z,96591.69
2023-01-09T05:30:50.829Z,96590.97
2023-01-09T05:33:19.746Z,96587.50
2023-01-09T05:35:47.276Z,96574.84
2023-01-09T05:38:14.875Z,96576.00
2023-01-09T05:40:42.589Z,96571.78
2023-01-09T05:43:10.110Z,96565.28
2023-01-09T05:45:37.662Z,96561.44
2023-01-09T05:48:05.692Z,96553.44
2023-01-09T05:50:34.621Z,96558.75
2023-01-09T05:53:02.220Z,96557.94
2023-01-09T05:55:29.798Z,96555.69
2023-01-09T05:57:57.304Z,96550.75
2023-01-09T06:00:25.878Z,96560.19
2023-01-09T06:02:53.448Z,96555.59
2023-01-09T06:05:21.162Z,96560.16
2023-01-09T06:07:50.035Z,96569.31
2023-01-09T06:10:17.857Z,96576.97
2023-01-09T06:12:48.252Z,96583.09
2023-01-09T06:15:16.967Z,96582.97
2023-01-09T06:17:44.479Z,96592.91
2023-01-09T06:20:12.265Z,96595.22
2023-01-09T06:22:39.804Z,96598.97
2023-01-09T06:25:09.672Z,96600.13
2023-01-09T06:27:37.265Z,96606.19
2023-01-09T06:30:06.110Z,96608.50
2023-01-09T06:32:33.662Z,96609.25
2023-01-09T06:35:01.222Z,96613.81
2023-01-09T06:37:28.794Z,96608.50
2023-01-09T06:39:56.700Z,96608.88
2023-01-09T06:42:25.589Z,96605.16
2023-01-09T06:44:53.206Z,96611.63
2023-01-09T06:47:20.820Z,96600.28
2023-01-09T06:49:48.609Z,96602.16
2023-01-09T06:52:16.092Z,96596.47
2023-01-09T06:54:43.593Z,96591.78
2023-01-09T06:57:12.292Z,96591.72
2023-01-09T06:59:41.139Z,96586.03
2023-01-09T07:02:17.825Z,96586.50
2023-01-09T07:04:45.559Z,96579.34
2023-01-09T07:07:13.678Z,96586.97
2023-01-09T07:09:41.387Z,96582.03
2023-01-09T07:12:09.019Z,96580.44
2023-01-09T07:14:36.539Z,96585.38
2023-01-09T07:17:05.401Z,96588.06
2023-01-09T07:19:33.009Z,96591.06
2023-01-09T07:22:00.538Z,96586.22
2023-01-09T07:24:28.128Z,96586.53
2023-01-09T07:26:55.682Z,96587.72
2023-01-09T07:29:23.213Z,96582.00
2023-01-09T07:31:50.941Z,96577.78
2023-01-09T07:34:20.041Z,96578.97
2023-01-09T07:36:47.619Z,96575.44
2023-01-09T07:39:18.010Z,96576.97
2023-01-09T07:41:46.289Z,96566.34
2023-01-09T07:44:14.759Z,96566.28
2023-01-09T07:46:42.349Z,96567.75
2023-01-09T07:49:09.995Z,96573.09
2023-01-09T07:51:38.854Z,96578.03
2023-01-09T07:54:06.814Z,96575.81
2023-01-09T07:56:34.343Z,96575.06
2023-01-09T07:59:04.204Z,96578.81
2023-01-09T08:01:31.752Z,96579.13
2023-01-09T08:03:59.308Z,96582.97
2023-01-09T08:06:26.828Z,96584.47
2023-01-09T08:08:55.719Z,96580.81
2023-01-09T08:11:23.821Z,96575.13
2023-01-09T08:13:51.882Z,96570.91
2023-01-09T08:16:19.643Z,96575.56
2023-01-09T08:18:49.624Z,96573.31
2023-01-09T08:21:17.130Z,96575.63
2023-01-09T08:23:44.724Z,96582.50
2023-01-09T08:26:13.634Z,96594.66
2023-01-09T08:28:41.267Z,96588.91
2023-01-09T08:31:09.211Z,96586.97
2023-01-09T08:33:37.756Z,96584.00
2023-01-09T08:36:07.129Z,96579.78
2023-01-09T08:38:34.743Z,96579.00
2023-01-09T08:41:02.343Z,96580.09
2023-01-09T08:43:31.338Z,96576.25
2023-01-09T08:46:00.614Z,96579.31
2023-01-09T08:48:28.307Z,96581.63
2023-01-09T08:50:55.836Z,96579.38
2023-01-09T08:53:23.489Z,96565.34
2023-01-09T08:55:51.001Z,96549.44
2023-01-09T08:58:18.531Z,96547.56
2023-01-09T09:00:47.412Z,96556.38
2023-01-09T09:03:15.268Z,96557.16
2023-01-09T09:05:42.887Z,96560.94
2023-01-09T09:08:10.489Z,96557.13
2023-01-09T09:10:38.051Z,96550.97
2023-01-09T09:13:06.646Z,96557.03
2023-01-09T09:15:34.841Z,96560.09
2023-01-09T09:18:06.081Z,96564.25
2023-01-09T09:20:38.408Z,96565.00
2023-01-09T09:23:06.429Z,96567.97
2023-01-09T09:25:34.397Z,96565.72
2023-01-09T09:28:01.999Z,96575.53
2023-01-09T09:30:29.633Z,96596.81
2023-01-09T09:32:57.183Z,96591.78
2023-01-09T09:35:28.666Z,96595.31
2023-01-09T09:37:58.227Z,96616.91
2023-01-09T09:40:56.001Z,96601.28
2023-01-09T09:43:48.437Z,96610.00
2023-01-09T09:46:32.982Z,96603.19
2023-01-09T09:49:07.844Z,96633.22
2023-01-09T09:51:56.164Z,96640.63
2023-01-09T09:54:32.360Z,96673.13
2023-01-09T09:57:03.888Z,96671.09
2023-01-09T09:59:34.389Z,96677.09
2023-01-09T10:02:14.632Z,96693.53
2023-01-09T10:04:51.189Z,96681.78
2023-01-09T10:07:27.948Z,96695.31
2023-01-09T10:10:00.395Z,96698.06
2023-01-09T10:12:31.582Z,96702.56
2023-01-09T10:15:03.157Z,96695.22
2023-01-09T10:17:48.529Z,96702.00
2023-01-09T10:20:45.731Z,96704.66
2023-01-09T10:23:38.700Z,96710.00
2023-01-09T10:26:16.572Z,96711.59
2023-01-09T10:29:05.560Z,96696.41
2023-01-09T10:31:45.649Z,96697.25
2023-01-09T10:34:30.009Z,96699.84
2023-01-09T10:37:06.547Z,96698.75
2023-01-09T10:39:43.591Z,96688.91
2023-01-09T10:42:21.628Z,96701.91
2023-01-09T10:44:56.571Z,96703.31
2023-01-09T10:47:31.882Z,96699.66
2023-01-09T10:50:01.901Z,96700.75
2023-01-09T10:52:36.352Z,96690.84
2023-01-09T10:55:17.406Z,96693.44
2023-01-09T10:57:48.959Z,96692.94
2023-01-09T11:00:22.362Z,96702.69
2023-01-09T11:02:52.213Z,96696.59
2023-01-09T11:05:24.695Z,96701.25
2023-01-09T11:07:58.310Z,96696.19
2023-01-09T11:10:45.697Z,96696.91
2023-01-09T11:13:18.440Z,96691.41
2023-01-09T11:15:46.079Z,96687.94
2023-01-09T11:18:20.909Z,96683.78
2023-01-09T11:20:48.800Z,96672.97
2023-01-09T11:23:28.710Z,96681.00
2023-01-09T11:25:59.981Z,96679.91
2023-01-09T11:28:28.529Z,96685.28
2023-01-09T11:30:59.335Z,96676.47
2023-01-09T11:33:30.396Z,96674.13
2023-01-09T11:36:06.469Z,96672.97
2023-01-09T11:38:48.640Z,96663.25
2023-01-09T11:41:22.083Z,96665.13
2023-01-09T11:43:52.707Z,96651.69
2023-01-09T11:46:38.694Z,96652.75
2023-01-09T11:49:21.757Z,96648.19
2023-01-09T11:52:13.547Z,96644.13
2023-01-09T11:54:48.267Z,96639.56
2023-01-09T11:57:20.161Z,96633.88
2023-01-09T11:59:47.811Z,96620.81
2023-01-09T12:02:53.439Z,96621.53
2023-01-09T12:05:34.714Z,96621.78
2023-01-09T12:08:21.888Z,96619.38
2023-01-09T12:11:12.343Z,96610.28
2023-01-09T12:14:09.190Z,96613.03
2023-01-09T12:16:48.597Z,96609.31
2023-01-09T12:19:41.997Z,96613.19
2023-01-09T12:22:22.390Z,96604.84
2023-01-09T12:25:10.085Z,96610.06
2023-01-09T12:27:56.714Z,96608.44
2023-01-09T12:30:42.643Z,96616.31
2023-01-09T12:33:32.010Z,96620.34
2023-01-09T12:36:14.122Z,96620.59
2023-01-09T12:38:48.199Z,96620.13
2023-01-09T12:41:54.303Z,96617.97
2023-01-09T12:44:48.377Z,96613.31
2023-01-09T12:47:41.105Z,96615.69
2023-01-09T12:50:28.545Z,96616.19
2023-01-09T12:53:10.982Z,96612.75
2023-01-09T12:55:43.416Z,96612.34
2023-01-09T12:58:30.365Z,96601.28
2023-01-09T13:01:03.826Z,96607.41
2023-01-09T13:03:41.968Z,96608.00
2023-01-09T13:06:16.011Z,96607.28
2023-01-09T13:08:52.524Z,96610.69
2023-01-09T13:11:28.305Z,96617.09
2023-01-09T13:14:04.641Z,96615.53
2023-01-09T13:16:37.398Z,96620.44
2023-01-09T13:19:16.677Z,96615.31
2023-01-09T13:21:45.760Z,96625.94
2023-01-09T13:24:22.400Z,96616.78
2023-01-09T13:26:56.399Z,96621.38
2023-01-09T13:29:29.434Z,96647.94
2023-01-09T13:32:23.041Z,96664.06
2023-01-09T13:34:55.180Z,96685.47
2023-01-09T13:37:26.864Z,96699.34
2023-01-09T13:39:57.554Z,96716.41
2023-01-09T13:42:26.253Z,96747.84
2023-01-09T13:45:08.721Z,96759.31
2023-01-09T13:47:36.448Z,96779.31
2023-01-09T13:50:27.052Z,96760.69
2023-01-09T13:52:55.954Z,96757.28
2023-01-09T13:55:31.513Z,96752.47
2023-01-09T13:58:19.754Z,96745.66
2023-01-09T14:00:50.835Z,96741.38
2023-01-09T14:03:25.152Z,96744.78
2023-01-09T14:06:16.266Z,96741.09
2023-01-09T14:08:46.610Z,96741.97
2023-01-09T14:11:22.498Z,96735.50
2023-01-09T14:14:06.785Z,96742.69
2023-01-09T14:16:36.295Z,96750.31
2023-01-09T14:19:20.883Z,96763.63
2023-01-09T14:21:54.860Z,96754.00
2023-01-09T14:24:28.287Z,96763.72
2023-01-09T14:26:58.079Z,96763.25
2023-01-09T14:29:40.981Z,96758.63
2023-01-09T14:32:37.257Z,96763.78
2023-01-09T14:35:15.208Z,96767.47
2023-01-09T14:37:59.040Z,96763.09
2023-01-09T14:40:27.334Z,96766.03
2023-01-09T14:43:07.984Z,96769.50
2023-01-09T14:45:38.201Z,96767.09
2023-01-09T14:48:11.235Z,96787.47
2023-01-09T14:50:44.779Z,96790.13
2023-01-09T14:53:20.195Z,96786.34
2023-01-09T14:55:52.386Z,96797.09
2023-01-09T14:58:22.807Z,96807.78
2023-01-09T15:01:00.227Z,96818.13
2023-01-09T15:03:34.390Z,96833.41
2023-01-09T15:06:03.491Z,96819.13
2023-01-09T15:08:34.156Z,96812.25
2023-01-09T15:11:02.397Z,96840.44
2023-01-09T15:13:36.322Z,96833.31
2023-01-09T15:16:07.100Z,96836.63
2023-01-09T15:18:42.873Z,96831.13
2023-01-09T15:21:19.737Z,96832.38
2023-01-09T15:23:49.015Z,96844.72
2023-01-09T15:26:26.428Z,96849.13
2023-01-09T15:29:01.580Z,96851.16
2023-01-09T15:31:29.914Z,96856.03
2023-01-09T15:33:57.525Z,96861.16
2023-01-09T15:36:28.123Z,96853.50
2023-01-09T15:38:59.209Z,96847.19
2023-01-09T15:41:29.653Z,96845.34
2023-01-09T15:43:57.363Z,96847.91
2023-01-09T15:46:25.031Z,96848.94
2023-01-09T15:48:54.347Z,96853.84
2023-01-09T15:51:22.852Z,96860.25
2023-01-09T15:53:51.335Z,96849.25
2023-01-09T15:56:23.437Z,96871.06
2023-01-09T15:58:53.061Z,96871.38
2023-01-09T16:01:28.101Z,96868.09
2023-01-09T16:04:03.859Z,96873.72
2023-01-09T16:06:36.424Z,96885.09
2023-01-09T16:09:14.770Z,96898.97
2023-01-09T16:11:48.555Z,96897.56
2023-01-09T16:14:21.964Z,96911.66
2023-01-09T16:17:02.142Z,96910.63
2023-01-09T16:19:32.009Z,96900.06
2023-01-09T16:22:01.510Z,96900.94
2023-01-09T16:24:39.312Z,96899.94
2023-01-09T16:27:28.416Z,96905.13
2023-01-09T16:29:58.636Z,96898.22
2023-01-09T16:32:29.244Z,96904.84
2023-01-09T16:34:59.792Z,96912.56
2023-01-09T16:37:29.215Z,96919.72
2023-01-09T16:40:22.839Z,96934.28
2023-01-09T16:42:57.670Z,96922.91
2023-01-09T16:45:26.385Z,96957.50
2023-01-09T16:47:54.666Z,96962.00
2023-01-09T16:50:22.175Z,96956.56
2023-01-09T16:53:14.633Z,96963.03
2023-01-09T16:55:43.058Z,96960.94
2023-01-09T16:58:17.046Z,96960.75
2023-01-09T17:00:46.017Z,96955.09
2023-01-09T17:03:14.936Z,96950.16
2023-01-09T17:05:42.918Z,96964.16
2023-01-09T17:08:21.371Z,96957.44
2023-01-09T17:10:49.124Z,96962.31
2023-01-09T17:13:18.066Z,96957.28
2023-01-09T17:15:46.664Z,96966.00
2023-01-09T17:18:16.031Z,96962.44
2023-01-09T17:20:47.070Z,96966.31
2023-01-09T17:23:15.062Z,96966.00
2023-01-09T17:25:43.937Z,96971.69
2023-01-09T17:28:20.273Z,96963.25
2023-01-09T17:30:48.170Z,96973.88
2023-01-09T17:33:18.043Z,96977.41
2023-01-09T17:35:45.992Z,96994.53
2023-01-09T17:38:14.123Z,96994.28
2023-01-09T17:40:42.343Z,97014.00
2023-01-09T17:43:12.256Z,97016.66
2023-01-09T17:45:42.169Z,97012.88
2023-01-09T17:48:21.168Z,97021.25
2023-01-09T17:50:49.619Z,97026.50
2023-01-09T17:53:17.251Z,97032.59
2023-01-09T17:55:44.807Z,97027.41
2023-01-09T17:58:24.819Z,97041.19
2023-01-09T18:00:58.979Z,97036.34
2023-01-09T18:03:29.164Z,97059.94
2023-01-09T18:05:57.162Z,97064.81
2023-01-09T18:08:27.345Z,97068.53
2023-01-09T18:10:54.959Z,97070.25
2023-01-09T18:13:22.634Z,97062.09
2023-01-09T18:15:50.258Z,97081.88
2023-01-09T18:18:19.434Z,97079.56
2023-01-09T18:20:47.110Z,97081.94
2023-01-09T18:23:14.783Z,97095.47
2023-01-09T18:25:43.633Z,97103.97
2023-01-09T18:28:13.127Z,97110.09
2023-01-09T18:30:42.007Z,97105.13
2023-01-09T18:33:09.942Z,97106.91
2023-01-09T18:35:41.241Z,97107.31
2023-01-09T18:38:08.912Z,97107.81
2023-01-09T18:40:36.771Z,97102.59
2023-01-09T18:43:05.242Z,97092.97
2023-01-09T18:45:33.314Z,97100.50
2023-01-09T18:48:01.025Z,97117.03
2023-01-09T18:50:28.877Z,97125.41
2023-01-09T18:52:58.052Z,97120.53
2023-01-09T18:55:25.689Z,97124.84
2023-01-09T18:57:55.730Z,97130.09
2023-01-09T19:00:23.748Z,97130.19
2023-01-09T19:02:51.430Z,97138.28
2023-01-09T19:05:19.166Z,97142.88
2023-01-09T19:07:47.532Z,97149.19
2023-01-09T19:10:18.314Z,97143.19
2023-01-09T19:12:45.924Z,97150.59
2023-01-09T19:15:14.836Z,97164.44
2023-01-09T19:17:42.481Z,97171.22
2023-01-09T19:20:11.485Z,97178.63
2023-01-09T19:22:40.156Z,97181.28
2023-01-09T19:25:08.298Z,97179.41
2023-01-09T19:27:37.645Z,97186.25
2023-01-09T19:30:07.045Z,97182.81
2023-01-09T19:32:34.797Z,97182.44
2023-01-09T19:35:02.491Z,97181.84
2023-01-09T19:37:30.127Z,97181.13
2023-01-09T19:39:57.747Z,97190.00
2023-01-09T19:42:25.814Z,97194.19
2023-01-09T19:44:56.998Z,97194.91
2023-01-09T19:47:24.637Z,97200.59
2023-01-09T19:49:52.288Z,97201.50
2023-01-09T19:52:20.141Z,97213.13
2023-01-09T19:54:48.021Z,97207.66
2023-01-09T19:57:17.012Z,97219.22
2023-01-09T19:59:44.910Z,97231.63
2023-01-09T20:02:13.874Z,97222.88
2023-01-09T20:04:41.530Z,97229.56
2023-01-09T20:07:09.238Z,97235.22
2023-01-09T20:09:37.047Z,97236.41
2023-01-09T20:12:05.197Z,97240.53
2023-01-09T20:14:34.162Z,97238.63
2023-01-09T20:17:01.690Z,97246.25
2023-01-09T20:19:30.659Z,97249.06
2023-01-09T20:21:58.617Z,97246.25
2023-01-09T20:24:26.279Z,97243.06
2023-01-09T20:26:53.832Z,97244.63
2023-01-09T20:29:21.352Z,97252.59
2023-01-09T20:31:49.022Z,97263.72
2023-01-09T20:34:16.553Z,97265.94
2023-01-09T20:36:45.545Z,97272.09
2023-01-09T20:39:13.431Z,97260.28
2023-01-09T20:41:41.051Z,97267.97
2023-01-09T20:44:12.498Z,97263.19
2023-01-09T20:46:42.570Z,97260.09
2023-01-09T20:49:12.914Z,97249.94
2023-01-09T20:51:43.299Z,97266.75
2023-01-09T20:54:12.467Z,97265.69
2023-01-09T20:56:40.044Z,97262.84
2023-01-09T20:59:12.326Z,97268.06
2023-01-09T21:01:39.920Z,97262.84
2023-01-09T21:04:07.775Z,97267.97
2023-01-09T21:06:36.177Z,97272.16
2023-01-09T21:09:04.975Z,97283.50
2023-01-09T21:11:34.331Z,97284.72
2023-01-09T21:14:01.921Z,97298.66
2023-01-09T21:16:29.599Z,97301.69
2023-01-09T21:18:57.323Z,97296.63
2023-01-09T21:21:25.801Z,97298.97
2023-01-09T21:23:56.027Z,97288.88
2023-01-09T21:26:26.293Z,97289.38
2023-01-09T21:28:57.503Z,97277.59
2023-01-09T21:31:27.506Z,97288.97
2023-01-09T21:33:55.803Z,97288.81
2023-01-09T21:36:23.351Z,97290.28
2023-01-09T21:38:51.921Z,97289.41
2023-01-09T21:41:21.344Z,97293.69
2023-01-09T21:43:49.306Z,97292.06
2023-01-09T21:46:19.228Z,97282.31
2023-01-09T21:48:46.825Z,97286.66
2023-01-09T21:51:14.390Z,97288.06
2023-01-09T21:53:41.964Z,97279.31
2023-01-09T21:56:09.576Z,97286.75
2023-01-09T21:58:37.494Z,97277.84
2023-01-09T22:01:05.586Z,97289.41
2023-01-09T22:03:34.599Z,97286.75
2023-01-09T22:06:03.481Z,97288.81
2023-01-09T22:08:32.349Z,97294.13
2023-01-09T22:10:59.970Z,97298.75
2023-01-09T22:13:29.123Z,97297.84
2023-01-09T22:16:03.191Z,97303.91
2023-01-09T22:18:31.260Z,97307.41
2023-01-09T22:21:00.566Z,97299.78
2023-01-09T22:23:28.843Z,97313.31
2023-01-09T22:25:57.492Z,97307.38
2023-01-09T22:28:25.035Z,97316.81
2023-01-09T22:30:52.558Z,97334.53
2023-01-09T22:33:20.152Z,97347.06
2023-01-09T22:35:47.780Z,97348.53
2023-01-09T22:38:16.779Z,97357.44
2023-01-09T22:40:44.447Z,97353.84
2023-01-09T22:43:12.068Z,97356.31
2023-01-09T22:45:39.730Z,97346.56
2023-01-09T22:48:07.399Z,97353.22
2023-01-09T22:50:35.494Z,97349.41
2023-01-09T22:53:03.102Z,97360.53
2023-01-09T22:55:33.145Z,97376.13
2023-01-09T22:58:00.745Z,97394.88
2023-01-09T23:00:28.296Z,97410.72
2023-01-09T23:02:55.897Z,97409.97
2023-01-09T23:05:23.529Z,97422.38
2023-01-09T23:07:51.123Z,97426.03
2023-01-09T23:10:18.993Z,97426.97
2023-01-09T23:12:47.992Z,97427.25
2023-01-09T23:15:15.658Z,97448.00
2023-01-09T23:17:43.331Z,97463.16
2023-01-09T23:20:11.772Z,97468.47
2023-01-09T23:22:40.438Z,97491.91
2023-01-09T23:25:09.136Z,97486.31
2023-01-09T23:27:36.751Z,97498.38
2023-01-09T23:30:07.070Z,97494.88
2023-01-09T23:32:34.780Z,97498.41
2023-01-09T23:35:02.431Z,97509.84
2023-01-09T23:37:30.098Z,97492.59
2023-01-09T23:39:57.716Z,97497.13
2023-01-09T23:42:25.314Z,97502.00
2023-01-09T23:44:52.918Z,97501.97
2023-01-09T23:47:21.892Z,97513.59
2023-01-09T23:49:49.577Z,97522.75
2023-01-09T23:52:17.260Z,97515.53
2023-01-09T23:54:44.957Z,97515.31
2023-01-09T23:57:12.636Z,97513.22
2023-01-09T23:59:40.287Z,97513.00
